Time;durP1;ratioP1;P1;durP2;ratioP2;P2;SDS_P1;SDS_P2;PMS_P1;PMS_P2;Temp;Humidity;BMP_temperature;BMP_pressure;BME280_temperature;BME280_humidity;BME280_pressure;Samples;Min_cycle;Max_cycle;Signal;HPM_P1;HPM_P2
2021/10/25 00:00:29;;;;;;;3.95;0.55;;;;;;;;;;4996255;28;20114;-67
2021/10/25 00:02:57;;;;;;;0.30;0.30;;;;;;;;;;4996075;28;20153;-72
2021/10/25 00:05:24;;;;;;;0.60;0.60;;;;;;;;;;4996442;28;20035;-68
2021/10/25 00:07:54;;;;;;;1.60;0.98;;;;;;;;;;4996692;28;20383;-72
2021/10/25 00:10:21;;;;;;;2.38;1.20;;;;;;;;;;4975378;28;20047;-68
2021/10/25 00:12:49;;;;;;;2.30;1.65;;;;;;;;;;4977022;28;20039;-72
2021/10/25 00:15:17;;;;;;;5.43;1.33;;;;;;;;;;4976752;28;20468;-73
2021/10/25 00:17:44;;;;;;;0.52;0.40;;;;;;;;;;4976184;28;20049;-67
2021/10/25 00:20:13;;;;;;;0.93;0.80;;;;;;;;;;4959464;28;20050;-73
2021/10/25 00:22:41;;;;;;;0.17;0.17;;;;;;;;;;4959278;28;20039;-68
2021/10/25 00:25:10;;;;;;;4.80;0.93;;;;;;;;;;4959197;28;20073;-73
2021/10/25 00:27:38;;;;;;;2.17;1.00;;;;;;;;;;4976224;28;20531;-74
2021/10/25 00:30:06;;;;;;;0.70;0.70;;;;;;;;;;4976461;28;20113;-74
2021/10/25 00:32:38;;;;;;;7.22;0.90;;;;;;;;;;4959087;28;20057;-73
2021/10/25 00:35:06;;;;;;;1.17;0.82;;;;;;;;;;4958501;28;20074;-73
2021/10/25 00:37:36;;;;;;;0.20;0.20;;;;;;;;;;4975982;28;20042;-68
2021/10/25 00:40:05;;;;;;;4.40;1.35;;;;;;;;;;4976262;28;20051;-68
2021/10/25 00:42:33;;;;;;;0.47;0.45;;;;;;;;;;4976237;28;20043;-67
2021/10/25 00:45:01;;;;;;;0.65;0.60;;;;;;;;;;4975534;28;20126;-73
2021/10/25 00:47:29;;;;;;;0.17;0.17;;;;;;;;;;4975662;28;20035;-69
2021/10/25 00:49:56;;;;;;;0.43;0.35;;;;;;;;;;4976452;28;20054;-73
2021/10/25 00:52:27;;;;;;;1.20;0.88;;;;;;;;;;4975991;28;20523;-73
2021/10/25 00:54:55;;;;;;;0.68;0.45;;;;;;;;;;4958766;28;20074;-73
2021/10/25 00:57:24;;;;;;;1.55;1.13;;;;;;;;;;4976036;28;20046;-68
2021/10/25 00:59:51;;;;;;;0.47;0.38;;;;;;;;;;4942361;28;20069;-73
2021/10/25 01:02:20;;;;;;;0.63;0.63;;;;;;;;;;4958077;28;20043;-68
2021/10/25 01:04:49;;;;;;;1.23;0.75;;;;;;;;;;4975604;28;20153;-68
2021/10/25 01:07:17;;;;;;;6.82;0.88;;;;;;;;;;4958186;28;20082;-69
2021/10/25 01:09:45;;;;;;;2.50;0.85;;;;;;;;;;4975871;28;20077;-67
2021/10/25 01:12:12;;;;;;;0.10;0.10;;;;;;;;;;4958384;28;20053;-74
2021/10/25 01:14:40;;;;;;;0.10;0.10;;;;;;;;;;4976012;28;20047;-73
2021/10/25 01:17:09;;;;;;;1.05;0.95;;;;;;;;;;4975224;28;20098;-67
2021/10/25 01:19:40;;;;;;;1.08;1.00;;;;;;;;;;4958351;28;20086;-67
2021/10/25 01:22:09;;;;;;;0.70;0.68;;;;;;;;;;4957897;28;20047;-74
2021/10/25 01:24:37;;;;;;;2.58;0.77;;;;;;;;;;4958167;28;20098;-68
2021/10/25 01:27:05;;;;;;;1.83;0.70;;;;;;;;;;4957606;28;20054;-68
2021/10/25 01:29:33;;;;;;;11.00;1.48;;;;;;;;;;4975442;28;20054;-68
2021/10/25 01:32:00;;;;;;;12.30;1.63;;;;;;;;;;4957639;28;20378;-74
2021/10/25 01:34:28;;;;;;;2.25;0.70;;;;;;;;;;4957841;28;20105;-68
2021/10/25 01:36:58;;;;;;;1.52;1.05;;;;;;;;;;4957947;28;20078;-68
2021/10/25 01:39:27;;;;;;;5.32;1.60;;;;;;;;;;4975468;28;20407;-75
2021/10/25 01:41:55;;;;;;;1.27;1.13;;;;;;;;;;4957728;28;20070;-68
2021/10/25 01:44:24;;;;;;;5.07;2.63;;;;;;;;;;4957873;28;20134;-74
2021/10/25 01:46:51;;;;;;;4.20;2.20;;;;;;;;;;4957497;28;20047;-74
2021/10/25 01:49:31;;;;;;;9.52;2.53;;;;;;;;;;4957828;28;20070;-68
2021/10/25 01:52:00;;;;;;;15.48;2.03;;;;;;;;;;4957587;28;20122;-74
2021/10/25 01:54:30;;;;;;;7.18;2.08;;;;;;;;;;4957368;28;20081;-74
2021/10/25 01:56:58;;;;;;;7.40;3.22;;;;;;;;;;4940767;28;20424;-74
2021/10/25 01:59:28;;;;;;;17.67;2.75;;;;;;;;;;4957027;28;20038;-75
2021/10/25 02:01:55;;;;;;;6.85;2.35;;;;;;;;;;4956893;28;20396;-68
2021/10/25 02:04:26;;;;;;;14.57;2.67;;;;;;;;;;4957337;28;20047;-74
2021/10/25 02:06:54;;;;;;;10.95;2.70;;;;;;;;;;4957575;28;20050;-74
2021/10/25 02:09:25;;;;;;;20.35;3.72;;;;;;;;;;4957273;28;20039;-68
2021/10/25 02:11:52;;;;;;;15.13;3.67;;;;;;;;;;4957479;28;20082;-74
2021/10/25 02:14:21;;;;;;;18.55;4.00;;;;;;;;;;4957099;28;20045;-68
2021/10/25 02:16:51;;;;;;;14.80;3.88;;;;;;;;;;4957214;28;20730;-74
2021/10/25 02:19:19;;;;;;;20.63;4.45;;;;;;;;;;4957107;28;20054;-74
2021/10/25 02:22:04;;;;;;;24.33;4.60;;;;;;;;;;4956954;28;20057;-74
2021/10/25 02:24:34;;;;;;;18.80;5.13;;;;;;;;;;4957175;28;20042;-74
2021/10/25 02:27:04;;;;;;;31.23;5.93;;;;;;;;;;4957052;28;20518;-74
2021/10/25 02:29:35;;;;;;;24.80;5.38;;;;;;;;;;4956995;28;20138;-69
2021/10/25 02:32:15;;;;;;;21.80;4.93;;;;;;;;;;4957072;28;20072;-69
2021/10/25 02:34:45;;;;;;;30.27;6.13;;;;;;;;;;4957414;28;20047;-74
2021/10/25 02:37:15;;;;;;;28.17;5.47;;;;;;;;;;4956785;28;20055;-68
2021/10/25 02:39:43;;;;;;;22.30;5.10;;;;;;;;;;4957048;28;20038;-68
2021/10/25 02:42:11;;;;;;;24.52;5.50;;;;;;;;;;4957028;28;20050;-68
2021/10/25 02:44:39;;;;;;;33.67;6.25;;;;;;;;;;4956501;28;20053;-74
2021/10/25 02:47:08;;;;;;;30.02;5.45;;;;;;;;;;4974311;28;20439;-74
2021/10/25 02:49:35;;;;;;;30.67;5.60;;;;;;;;;;4974235;28;20062;-68
2021/10/25 02:52:07;;;;;;;39.17;6.45;;;;;;;;;;4957122;28;20047;-68
2021/10/25 02:54:36;;;;;;;29.23;5.90;;;;;;;;;;4957134;28;20043;-68
2021/10/25 02:57:04;;;;;;;32.97;5.63;;;;;;;;;;4940571;28;20078;-68
2021/10/25 02:59:35;;;;;;;27.90;5.72;;;;;;;;;;4956706;28;20549;-74
2021/10/25 03:02:07;;;;;;;23.40;5.35;;;;;;;;;;4956584;28;20050;-74
2021/10/25 03:04:35;;;;;;;21.77;5.38;;;;;;;;;;4957188;28;20046;-74
2021/10/25 03:07:04;;;;;;;27.23;5.88;;;;;;;;;;4956743;28;20039;-69
2021/10/25 03:09:40;;;;;;;25.20;5.32;;;;;;;;;;4960980;28;20501;-74
2021/10/25 03:12:07;;;;;;;18.27;4.63;;;;;;;;;;4960458;28;20504;-74
2021/10/25 03:14:36;;;;;;;24.70;5.50;;;;;;;;;;4960300;28;20507;-68
2021/10/25 03:17:04;;;;;;;24.20;5.70;;;;;;;;;;4960415;28;20054;-68
2021/10/25 03:19:40;;;;;;;21.70;4.90;;;;;;;;;;4960393;28;20047;-75
2021/10/25 03:22:10;;;;;;;22.52;5.10;;;;;;;;;;4960418;28;20623;-75
2021/10/25 03:24:37;;;;;;;22.70;4.80;;;;;;;;;;4960519;28;20043;-74
2021/10/25 03:27:05;;;;;;;19.08;4.85;;;;;;;;;;4959779;28;20504;-69
2021/10/25 03:29:32;;;;;;;20.30;5.10;;;;;;;;;;4977811;28;20114;-74
2021/10/25 03:32:00;;;;;;;18.88;4.35;;;;;;;;;;4977709;28;20440;-68
2021/10/25 03:34:29;;;;;;;21.95;4.70;;;;;;;;;;4960208;28;20047;-68
2021/10/25 03:36:58;;;;;;;24.58;4.43;;;;;;;;;;4960180;28;20469;-68
2021/10/25 03:39:32;;;;;;;21.35;4.30;;;;;;;;;;4959891;28;20101;-74
2021/10/25 03:42:01;;;;;;;18.48;3.95;;;;;;;;;;4959662;28;20042;-74
2021/10/25 03:44:40;;;;;;;15.82;3.45;;;;;;;;;;4960062;28;20039;-69
2021/10/25 03:47:18;;;;;;;10.70;2.92;;;;;;;;;;4959931;28;20412;-74
2021/10/25 03:49:53;;;;;;;12.75;2.95;;;;;;;;;;4960306;28;20415;-69
2021/10/25 04:01:32;;;;;;;12.63;3.22;;;;;;;;;;4959598;28;20070;-74
2021/10/25 04:28:27;;;;;;;7.10;2.78;;;;;;;;;;4959188;28;20583;-70
2021/10/25 04:30:57;;;;;;;9.10;2.70;;;;;;;;;;4959287;28;20051;-76
2021/10/25 04:33:31;;;;;;;7.68;2.47;;;;;;;;;;4944340;28;20543;-71
2021/10/25 04:36:17;;;;;;;9.38;2.47;;;;;;;;;;4976315;28;20416;-71
2021/10/25 04:39:04;;;;;;;9.30;2.70;;;;;;;;;;4958863;28;20039;-76
2021/10/25 04:41:32;;;;;;;7.50;2.05;;;;;;;;;;4958498;28;20049;-76
2021/10/25 04:43:59;;;;;;;8.30;2.20;;;;;;;;;;4976309;28;20038;-77
2021/10/25 04:46:33;;;;;;;7.40;2.33;;;;;;;;;;4959200;28;20146;-76
2021/10/25 04:49:01;;;;;;;5.70;2.22;;;;;;;;;;4959050;28;20054;-76
2021/10/25 04:51:53;;;;;;;7.32;2.35;;;;;;;;;;4957449;28;20058;-76
2021/10/25 04:54:23;;;;;;;10.32;3.20;;;;;;;;;;4958485;28;20054;-71
2021/10/25 04:56:54;;;;;;;7.40;3.05;;;;;;;;;;4958632;28;20062;-77
2021/10/25 04:59:23;;;;;;;11.07;2.90;;;;;;;;;;4958536;28;20051;-77
2021/10/25 05:01:51;;;;;;;12.27;3.58;;;;;;;;;;4958353;28;20049;-76
2021/10/25 05:04:18;;;;;;;8.55;2.67;;;;;;;;;;4958288;28;20401;-70
2021/10/25 05:06:46;;;;;;;9.32;3.58;;;;;;;;;;4975904;28;20050;-76
2021/10/25 05:09:14;;;;;;;11.10;3.30;;;;;;;;;;4957873;28;20058;-75
2021/10/25 05:11:41;;;;;;;11.77;3.45;;;;;;;;;;4976003;28;20045;-68
2021/10/25 05:14:09;;;;;;;9.52;3.80;;;;;;;;;;4958440;28;20054;-75
2021/10/25 05:16:39;;;;;;;8.98;3.80;;;;;;;;;;4957985;28;20055;-70
2021/10/25 05:19:09;;;;;;;10.95;4.00;;;;;;;;;;4975643;28;20069;-70
2021/10/25 05:21:43;;;;;;;17.00;4.90;;;;;;;;;;4958540;28;20047;-70
2021/10/25 05:24:13;;;;;;;12.75;3.67;;;;;;;;;;4957425;28;20051;-70
2021/10/25 05:26:40;;;;;;;9.48;4.25;;;;;;;;;;4958032;28;20061;-70
2021/10/25 05:29:08;;;;;;;13.68;4.43;;;;;;;;;;4975233;28;20045;-71
2021/10/25 05:31:35;;;;;;;12.52;4.18;;;;;;;;;;4958586;28;20054;-76
2021/10/25 05:34:04;;;;;;;12.43;3.90;;;;;;;;;;4975488;28;20043;-76
2021/10/25 05:36:35;;;;;;;11.90;3.88;;;;;;;;;;4957654;28;20085;-70
2021/10/25 05:39:10;;;;;;;12.02;4.10;;;;;;;;;;4957559;28;20042;-71
2021/10/25 05:41:39;;;;;;;9.95;4.00;;;;;;;;;;4957441;28;20571;-71
2021/10/25 05:44:08;;;;;;;14.88;4.28;;;;;;;;;;4957789;28;20097;-75
2021/10/25 05:46:36;;;;;;;18.48;4.65;;;;;;;;;;4942223;28;20570;-71
2021/10/25 05:49:06;;;;;;;12.82;4.57;;;;;;;;;;4957484;28;20050;-71
2021/10/25 05:51:34;;;;;;;15.15;4.63;;;;;;;;;;4941853;28;20057;-70
2021/10/25 05:54:05;;;;;;;13.52;4.60;;;;;;;;;;4957564;28;20057;-75
2021/10/25 05:56:32;;;;;;;9.93;4.40;;;;;;;;;;4957260;28;20101;-71
2021/10/25 05:59:04;;;;;;;12.93;4.57;;;;;;;;;;4957140;28;20110;-80
2021/10/25 06:01:41;;;;;;;17.52;4.55;;;;;;;;;;4957373;28;20050;-71
2021/10/25 06:04:21;;;;;;;15.20;4.53;;;;;;;;;;4942543;28;20061;-72
2021/10/25 06:07:12;;;;;;;14.15;4.25;;;;;;;;;;4973810;28;20097;-79
2021/10/25 06:09:39;;;;;;;12.65;4.45;;;;;;;;;;4957358;28;20358;-72
2021/10/25 06:12:15;;;;;;;14.63;4.75;;;;;;;;;;4957554;28;20130;-72
2021/10/25 06:15:09;;;;;;;16.45;4.93;;;;;;;;;;4974200;28;20046;-80
2021/10/25 06:17:51;;;;;;;12.52;4.15;;;;;;;;;;4973932;28;21115;-79
2021/10/25 06:20:26;;;;;;;13.32;4.20;;;;;;;;;;4943151;28;20460;-71
2021/10/25 06:22:56;;;;;;;22.58;4.47;;;;;;;;;;4956445;28;20121;-72
2021/10/25 06:25:26;;;;;;;18.07;4.20;;;;;;;;;;4957102;28;20047;-80
2021/10/25 06:28:05;;;;;;;13.40;4.13;;;;;;;;;;4956815;28;20293;-81
2021/10/25 06:30:34;;;;;;;12.57;4.20;;;;;;;;;;4957371;28;20097;-79
2021/10/25 06:33:04;;;;;;;12.05;4.50;;;;;;;;;;4957036;28;20090;-79
2021/10/25 06:36:02;;;;;;;15.32;4.13;;;;;;;;;;4956044;28;20464;-80
2021/10/25 06:38:55;;;;;;;11.38;4.43;;;;;;;;;;4963366;28;20059;-80
2021/10/25 06:41:24;;;;;;;14.38;4.70;;;;;;;;;;4956859;28;20432;-71
2021/10/25 06:43:56;;;;;;;12.30;3.90;;;;;;;;;;4956228;28;20043;-72
2021/10/25 06:46:29;;;;;;;12.30;4.40;;;;;;;;;;4956991;28;20556;-80
2021/10/25 06:49:00;;;;;;;12.88;5.03;;;;;;;;;;4955876;28;20047;-81
2021/10/25 06:51:30;;;;;;;15.32;4.72;;;;;;;;;;4973227;28;20404;-80
2021/10/25 06:54:02;;;;;;;18.02;4.93;;;;;;;;;;4973356;28;20150;-80
2021/10/25 06:56:31;;;;;;;14.52;4.35;;;;;;;;;;4957308;28;20579;-81
2021/10/25 06:59:00;;;;;;;19.63;4.70;;;;;;;;;;4973090;28;20124;-72
2021/10/25 07:01:33;;;;;;;15.40;4.97;;;;;;;;;;4973291;28;20140;-81
2021/10/25 07:04:02;;;;;;;14.27;5.35;;;;;;;;;;4972585;28;20050;-72
2021/10/25 07:06:35;;;;;;;15.73;4.70;;;;;;;;;;4972499;28;20081;-72
2021/10/25 07:09:04;;;;;;;14.98;4.45;;;;;;;;;;4972821;28;20058;-80
2021/10/25 07:11:34;;;;;;;14.95;5.22;;;;;;;;;;4972764;28;20177;-80
2021/10/25 07:14:07;;;;;;;18.17;5.13;;;;;;;;;;4973098;28;20132;-71
2021/10/25 07:16:53;;;;;;;16.73;4.80;;;;;;;;;;4973084;28;20105;-77
2021/10/25 07:19:40;;;;;;;18.48;5.35;;;;;;;;;;4972856;28;20047;-71
2021/10/25 08:10:21;;;;;;;15.93;4.20;;;;;;;;;;4899015;29;20144;-72
2021/10/25 08:12:57;;;;;;;12.30;4.18;;;;;;;;;;4900005;29;20094;-81
2021/10/25 08:15:39;;;;;;;14.23;4.50;;;;;;;;;;4898300;29;20100;-81
2021/10/25 08:19:07;;;;;;;17.80;4.55;;;;;;;;;;4899150;29;20159;-81
2021/10/25 08:21:03;;;;;;;11.18;4.00;;;;;;;;;;4884123;29;20069;-82
2021/10/25 08:23:31;;;;;;;9.07;3.33;;;;;;;;;;4962110;28;20090;-72
2021/10/25 08:26:09;;;;;;;14.70;4.00;;;;;;;;;;4982589;23;20051;-74
2021/10/25 08:28:39;;;;;;;16.40;4.30;;;;;;;;;;4937125;29;20051;-77
2021/10/25 08:31:11;;;;;;;11.75;3.70;;;;;;;;;;4950748;29;20039;-75
2021/10/25 08:41:54;;;;;;;10.20;3.42;;;;;;;;;;4936166;29;20134;-74
2021/10/25 08:44:24;;;;;;;10.52;3.42;;;;;;;;;;4922823;29;20070;-75
2021/10/25 08:46:56;;;;;;;8.50;4.40;;;;;;;;;;4923265;29;20035;-75
2021/10/25 08:49:30;;;;;;;9.68;3.85;;;;;;;;;;4939570;29;20173;-75
2021/10/25 08:52:00;;;;;;;9.43;3.53;;;;;;;;;;4956376;29;20066;-75
2021/10/25 08:54:33;;;;;;;11.27;3.40;;;;;;;;;;4938693;29;20043;-76
2021/10/25 08:57:01;;;;;;;10.43;4.13;;;;;;;;;;4923341;29;20580;-75
2021/10/25 08:59:34;;;;;;;12.30;3.60;;;;;;;;;;4938101;29;20220;-75
2021/10/25 09:02:06;;;;;;;16.35;4.55;;;;;;;;;;4938743;29;20062;-75
2021/10/25 09:05:02;;;;;;;18.92;4.60;;;;;;;;;;4949999;28;20101;-74
2021/10/25 09:07:30;;;;;;;15.60;4.97;;;;;;;;;;4938291;29;20051;-74
2021/10/25 09:09:57;;;;;;;15.48;4.95;;;;;;;;;;4938813;29;20047;-75
2021/10/25 09:12:32;;;;;;;16.77;5.43;;;;;;;;;;4938888;29;20110;-74
2021/10/25 09:15:00;;;;;;;20.20;6.18;;;;;;;;;;4938184;29;20043;-74
2021/10/25 09:17:40;;;;;;;16.17;5.43;;;;;;;;;;4938651;29;20051;-74
2021/10/25 09:20:17;;;;;;;14.95;5.13;;;;;;;;;;4938962;29;20448;-74
2021/10/25 09:22:46;;;;;;;9.95;5.13;;;;;;;;;;4923131;29;20055;-74
2021/10/25 09:25:14;;;;;;;13.75;5.85;;;;;;;;;;4923242;29;20098;-74
2021/10/25 09:27:47;;;;;;;9.13;4.30;;;;;;;;;;4938688;29;20503;-77
2021/10/25 09:30:28;;;;;;;11.93;4.50;;;;;;;;;;4938122;29;20048;-77
2021/10/25 09:33:05;;;;;;;8.68;4.40;;;;;;;;;;4932008;28;20110;-77
2021/10/25 09:35:47;;;;;;;17.17;4.45;;;;;;;;;;4941073;29;20047;-74
2021/10/25 09:39:12;;;;;;;8.10;3.70;;;;;;;;;;4938448;29;20134;-74
2021/10/25 09:49:43;;;;;;;8.02;3.40;;;;;;;;;;4946081;28;20059;-74
2021/10/25 09:52:12;;;;;;;7.45;3.28;;;;;;;;;;4947428;28;20073;-75
2021/10/25 09:54:55;;;;;;;7.35;3.60;;;;;;;;;;4949220;28;20503;-75
2021/10/25 09:57:27;;;;;;;6.70;3.50;;;;;;;;;;4940723;29;20054;-75
2021/10/25 10:00:15;;;;;;;8.45;3.63;;;;;;;;;;4947191;28;20041;-75
2021/10/25 10:02:49;;;;;;;7.18;3.50;;;;;;;;;;4957003;28;20074;-74
2021/10/25 10:05:50;;;;;;;12.90;3.90;;;;;;;;;;4958489;28;20192;-78
2021/10/25 10:08:27;;;;;;;13.10;4.88;;;;;;;;;;4957243;28;20138;-78
2021/10/25 10:10:56;;;;;;;7.75;3.80;;;;;;;;;;4956975;28;20138;-77
2021/10/25 10:13:26;;;;;;;9.55;4.03;;;;;;;;;;4956334;28;20074;-74
2021/10/25 10:16:16;;;;;;;11.43;4.63;;;;;;;;;;4974235;28;20062;-75
2021/10/25 10:18:55;;;;;;;12.15;4.30;;;;;;;;;;4940566;28;20078;-77
2021/10/25 10:21:32;;;;;;;7.88;4.10;;;;;;;;;;4974021;28;20436;-77
2021/10/25 10:24:11;;;;;;;7.55;3.72;;;;;;;;;;4956907;28;20054;-77
2021/10/25 10:26:40;;;;;;;9.63;4.00;;;;;;;;;;4954172;28;20047;-76
2021/10/25 10:29:16;;;;;;;5.68;3.25;;;;;;;;;;4946371;28;20059;-74
2021/10/25 10:32:05;;;;;;;7.28;2.90;;;;;;;;;;4941180;28;20057;-77
2021/10/25 10:34:52;;;;;;;4.80;2.83;;;;;;;;;;4943220;28;20043;-73
2021/10/25 10:37:44;;;;;;;7.70;2.72;;;;;;;;;;4963348;28;20567;-77
2021/10/25 10:40:18;;;;;;;9.98;3.33;;;;;;;;;;4942335;28;20043;-78
2021/10/25 10:43:26;;;;;;;5.07;2.30;;;;;;;;;;4933266;28;20423;-75
2021/10/25 10:46:02;;;;;;;5.47;2.55;;;;;;;;;;4940334;28;20036;-76
2021/10/25 10:48:32;;;;;;;11.55;2.97;;;;;;;;;;4960984;28;20038;-75
2021/10/25 10:51:06;;;;;;;7.35;3.47;;;;;;;;;;4960174;28;20098;-76
2021/10/25 10:53:43;;;;;;;3.90;2.40;;;;;;;;;;4945138;28;20070;-74
2021/10/25 10:56:19;;;;;;;6.50;2.70;;;;;;;;;;4943492;28;20500;-74
2021/10/25 10:59:05;;;;;;;6.85;3.00;;;;;;;;;;4960197;28;20063;-76
2021/10/25 11:01:37;;;;;;;7.53;3.20;;;;;;;;;;4961209;28;20098;-75
2021/10/25 11:04:07;;;;;;;6.28;3.22;;;;;;;;;;4958208;28;20042;-75
2021/10/25 11:06:39;;;;;;;6.55;4.05;;;;;;;;;;4934103;29;20074;-75
2021/10/25 11:09:10;;;;;;;11.02;3.50;;;;;;;;;;4934441;29;20051;-74
2021/10/25 11:11:41;;;;;;;10.52;3.40;;;;;;;;;;4918184;29;20047;-74
2021/10/25 11:14:16;;;;;;;8.75;3.20;;;;;;;;;;4966598;28;20074;-75
2021/10/25 11:19:31;;;;;;;7.05;2.75;;;;;;;;;;4934283;29;20051;-75
2021/10/25 11:22:02;;;;;;;6.30;2.80;;;;;;;;;;4918229;29;20043;-77
2021/10/25 11:24:31;;;;;;;7.20;3.13;;;;;;;;;;4918029;29;20046;-75
2021/10/25 11:26:59;;;;;;;9.40;3.30;;;;;;;;;;4917866;29;20079;-74
2021/10/25 11:29:28;;;;;;;5.93;2.80;;;;;;;;;;4946211;28;20134;-75
2021/10/25 11:32:08;;;;;;;6.43;3.10;;;;;;;;;;4966150;28;20067;-77
2021/10/25 11:34:39;;;;;;;7.40;3.20;;;;;;;;;;4948800;28;20493;-76
2021/10/25 11:37:11;;;;;;;7.88;3.08;;;;;;;;;;4957868;29;20043;-75
2021/10/25 11:39:42;;;;;;;6.97;3.03;;;;;;;;;;4957620;29;20548;-74
2021/10/25 11:42:12;;;;;;;7.78;3.38;;;;;;;;;;4957769;29;20047;-76
2021/10/25 11:44:41;;;;;;;9.30;3.88;;;;;;;;;;4940981;29;20394;-74
2021/10/25 11:47:23;;;;;;;11.65;3.50;;;;;;;;;;4957957;29;20483;-74
2021/10/25 11:50:03;;;;;;;7.53;3.30;;;;;;;;;;4940915;29;20084;-75
2021/10/25 11:52:40;;;;;;;9.25;4.00;;;;;;;;;;4941146;29;20094;-77
2021/10/25 11:55:11;;;;;;;7.97;3.40;;;;;;;;;;4940424;29;20055;-75
2021/10/25 11:57:59;;;;;;;11.30;3.03;;;;;;;;;;4940050;29;20086;-76
2021/10/25 12:00:29;;;;;;;7.30;3.22;;;;;;;;;;4940300;29;20501;-74
2021/10/25 12:03:17;;;;;;;12.05;3.95;;;;;;;;;;4957593;29;20057;-76
2021/10/25 12:05:45;;;;;;;12.13;4.55;;;;;;;;;;4940159;29;20043;-77
2021/10/25 12:08:16;;;;;;;11.93;3.63;;;;;;;;;;4939905;29;20448;-75
2021/10/25 12:10:45;;;;;;;12.05;4.32;;;;;;;;;;4940426;28;20046;-77
2021/10/25 12:13:12;;;;;;;15.48;4.25;;;;;;;;;;4957637;29;20061;-74
2021/10/25 12:15:47;;;;;;;9.27;3.40;;;;;;;;;;4957393;28;20090;-74
2021/10/25 12:18:20;;;;;;;11.63;3.72;;;;;;;;;;4957570;29;20422;-77
2021/10/25 12:20:49;;;;;;;11.52;3.65;;;;;;;;;;4957247;29;20047;-74
2021/10/25 12:23:26;;;;;;;10.68;3.67;;;;;;;;;;4941301;29;20078;-74
2021/10/25 12:25:55;;;;;;;15.73;4.00;;;;;;;;;;4957300;29;20035;-74
2021/10/25 12:28:24;;;;;;;14.27;3.95;;;;;;;;;;4924675;29;20457;-74
2021/10/25 12:31:07;;;;;;;16.48;4.38;;;;;;;;;;4937395;29;20047;-74
2021/10/25 12:33:39;;;;;;;16.27;4.45;;;;;;;;;;4916930;29;20123;-78
2021/10/25 12:36:11;;;;;;;8.90;2.70;;;;;;;;;;4900015;29;20079;-75
2021/10/25 12:38:46;;;;;;;8.18;2.78;;;;;;;;;;4916687;29;20043;-75
2021/10/25 12:41:16;;;;;;;7.78;2.50;;;;;;;;;;4912051;29;20103;-74
2021/10/25 12:43:48;;;;;;;11.52;2.63;;;;;;;;;;4916975;29;20059;-74
2021/10/25 12:46:19;;;;;;;;;;;;;;;;;;4900140;29;20048;-74
2021/10/25 12:48:51;;;;;;;4.70;1.60;;;;;;;;;;4916838;29;19933;-75
2021/10/25 12:51:20;;;;;;;7.13;2.05;;;;;;;;;;4915985;29;20080;-75
2021/10/25 12:53:48;;;;;;;4.72;1.80;;;;;;;;;;4915211;29;20044;-74
2021/10/25 12:56:26;;;;;;;4.60;2.20;;;;;;;;;;4899002;29;20064;-77
2021/10/25 12:59:00;;;;;;;3.60;1.88;;;;;;;;;;4916077;29;20056;-76
2021/10/25 13:01:29;;;;;;;3.35;1.85;;;;;;;;;;4916272;29;20119;-74
2021/10/25 13:03:58;;;;;;;4.22;1.75;;;;;;;;;;4914757;29;20079;-74
2021/10/25 13:06:29;;;;;;;3.88;1.85;;;;;;;;;;4916333;29;20072;-73
2021/10/25 13:09:08;;;;;;;9.40;4.60;;;;;;;;;;4914753;29;20047;-73
2021/10/25 13:11:36;;;;;;;6.72;3.22;;;;;;;;;;4899273;29;20075;-74
2021/10/25 13:14:05;;;;;;;4.88;2.67;;;;;;;;;;4915800;29;20099;-73
2021/10/25 13:16:46;;;;;;;6.10;3.40;;;;;;;;;;4916000;29;20127;-73
2021/10/25 13:19:15;;;;;;;6.03;2.70;;;;;;;;;;4916302;29;20092;-73
2021/10/25 13:21:42;;;;;;;5.45;3.00;;;;;;;;;;4916077;29;20044;-73
2021/10/25 13:24:10;;;;;;;4.10;2.58;;;;;;;;;;4915642;29;20040;-74
2021/10/25 13:26:44;;;;;;;6.75;2.72;;;;;;;;;;4929679;29;20393;-76
2021/10/25 13:29:12;;;;;;;6.88;2.35;;;;;;;;;;4923401;29;20502;-79
2021/10/25 13:31:41;;;;;;;3.47;2.35;;;;;;;;;;4934542;29;20066;-76
2021/10/25 13:34:09;;;;;;;3.28;2.10;;;;;;;;;;4936262;29;20043;-74
2021/10/25 13:36:37;;;;;;;5.22;3.15;;;;;;;;;;4936145;29;20049;-74
2021/10/25 13:39:10;;;;;;;6.85;3.05;;;;;;;;;;4936526;29;20043;-76
2021/10/25 13:41:40;;;;;;;4.40;2.47;;;;;;;;;;4929498;29;20054;-72
2021/10/25 13:44:09;;;;;;;6.55;3.22;;;;;;;;;;4936582;29;20043;-73
2021/10/25 13:46:42;;;;;;;12.02;3.40;;;;;;;;;;4936614;29;20113;-74
2021/10/25 13:49:10;;;;;;;7.40;2.92;;;;;;;;;;4903858;29;20044;-74
2021/10/25 13:51:39;;;;;;;7.63;2.85;;;;;;;;;;4936095;29;20047;-73
2021/10/25 13:54:07;;;;;;;9.52;2.97;;;;;;;;;;4935762;29;20389;-73
2021/10/25 13:56:36;;;;;;;7.68;3.10;;;;;;;;;;4936198;29;20040;-73
2021/10/25 13:59:04;;;;;;;7.22;2.58;;;;;;;;;;4920878;29;20055;-74
2021/10/25 14:01:32;;;;;;;6.07;2.60;;;;;;;;;;4955385;29;20065;-72
2021/10/25 14:04:01;;;;;;;4.63;2.53;;;;;;;;;;4937796;29;20039;-75
2021/10/25 14:06:31;;;;;;;5.07;2.80;;;;;;;;;;4935380;29;20050;-75
2021/10/25 14:08:59;;;;;;;8.43;3.10;;;;;;;;;;4937015;29;20075;-77
2021/10/25 14:11:35;;;;;;;8.50;2.92;;;;;;;;;;4937075;29;20050;-75
2021/10/25 14:16:42;;;;;;;8.45;4.25;;;;;;;;;;4937067;29;20047;-74
2021/10/25 14:19:10;;;;;;;10.32;4.05;;;;;;;;;;4936954;29;20098;-73
2021/10/25 14:21:39;;;;;;;10.68;3.97;;;;;;;;;;4937225;29;20063;-75
2021/10/25 14:24:13;;;;;;;8.48;4.18;;;;;;;;;;4937506;29;20138;-74
2021/10/25 14:26:40;;;;;;;11.82;3.80;;;;;;;;;;4954125;29;20501;-78
2021/10/25 14:29:08;;;;;;;6.90;3.50;;;;;;;;;;4954280;29;20044;-75
2021/10/25 14:31:37;;;;;;;8.18;3.70;;;;;;;;;;4954412;29;20127;-75
2021/10/25 14:34:06;;;;;;;10.27;3.72;;;;;;;;;;4936851;29;20085;-74
2021/10/25 14:36:34;;;;;;;6.57;3.15;;;;;;;;;;4937540;29;20055;-74
2021/10/25 14:44:23;;;;;;;6.85;3.60;;;;;;;;;;4954183;29;20515;-74
2021/10/25 14:53:21;;;;;;;8.75;3.90;;;;;;;;;;4953861;29;20039;-74
2021/10/25 14:57:25;;;;;;;22.60;8.75;;;;;;;;;;4932926;29;20052;-74
2021/10/25 14:59:55;;;;;;;27.85;9.25;;;;;;;;;;4933166;29;20059;-74
2021/10/25 15:02:28;;;;;;;21.35;7.88;;;;;;;;;;4933162;29;20070;-76
2021/10/25 15:04:59;;;;;;;24.25;7.80;;;;;;;;;;4918585;29;20059;-74
2021/10/25 15:07:27;;;;;;;15.45;6.28;;;;;;;;;;4919664;29;20420;-78
2021/10/25 15:09:55;;;;;;;17.33;5.63;;;;;;;;;;4919592;29;20550;-74
2021/10/25 15:12:26;;;;;;;14.20;6.03;;;;;;;;;;4936223;29;20048;-74
2021/10/25 15:15:18;;;;;;;17.10;5.47;;;;;;;;;;4922747;29;20054;-73
2021/10/25 15:17:46;;;;;;;15.32;5.45;;;;;;;;;;4920145;29;20056;-74
2021/10/25 15:20:16;;;;;;;15.60;4.82;;;;;;;;;;4936663;29;20126;-74
2021/10/25 15:22:45;;;;;;;14.18;5.15;;;;;;;;;;4919954;29;20059;-74
2021/10/25 15:25:18;;;;;;;17.15;4.82;;;;;;;;;;4937167;29;20043;-78
2021/10/25 15:27:48;;;;;;;16.13;4.53;;;;;;;;;;4937514;29;20484;-74
2021/10/25 15:30:17;;;;;;;7.30;3.63;;;;;;;;;;4938293;29;20047;-76
2021/10/25 15:32:45;;;;;;;13.48;4.57;;;;;;;;;;4922590;29;20871;-77
2021/10/25 15:35:13;;;;;;;11.07;4.50;;;;;;;;;;4938418;29;20055;-77
2021/10/25 15:37:43;;;;;;;15.52;4.60;;;;;;;;;;4968079;28;20045;-77
2021/10/25 15:40:12;;;;;;;13.75;4.85;;;;;;;;;;4974955;28;20045;-73
2021/10/25 15:42:40;;;;;;;14.52;4.65;;;;;;;;;;4974509;28;20061;-77
2021/10/25 15:45:09;;;;;;;15.05;5.03;;;;;;;;;;4956401;28;20043;-75
2021/10/25 15:47:37;;;;;;;23.52;6.72;;;;;;;;;;4975042;28;20034;-77
2021/10/25 15:50:06;;;;;;;28.67;6.63;;;;;;;;;;4953680;28;20397;-77
2021/10/25 15:52:35;;;;;;;20.92;6.00;;;;;;;;;;4956991;28;20078;-73
2021/10/25 15:55:03;;;;;;;27.50;6.85;;;;;;;;;;4938694;29;20616;-75
2021/10/25 15:57:31;;;;;;;28.00;6.65;;;;;;;;;;4955064;29;20051;-76
2021/10/25 15:59:59;;;;;;;17.83;5.25;;;;;;;;;;4955669;29;20051;-74
2021/10/25 16:02:26;;;;;;;16.25;5.15;;;;;;;;;;4938594;29;20085;-77
2021/10/25 16:05:01;;;;;;;24.55;6.30;;;;;;;;;;4955842;29;20043;-73
2021/10/25 16:07:29;;;;;;;14.75;5.72;;;;;;;;;;4955001;29;20047;-75
2021/10/25 16:10:00;;;;;;;22.20;6.00;;;;;;;;;;4955226;29;20506;-74
2021/10/25 16:12:30;;;;;;;14.85;4.55;;;;;;;;;;4954907;29;20122;-75
2021/10/25 16:15:00;;;;;;;14.95;4.75;;;;;;;;;;4952727;28;20059;-76
2021/10/25 16:17:28;;;;;;;17.33;4.50;;;;;;;;;;4953541;29;20118;-77
2021/10/25 16:19:59;;;;;;;18.67;4.88;;;;;;;;;;4937214;29;20551;-77
2021/10/25 16:22:28;;;;;;;17.45;4.90;;;;;;;;;;4955128;29;20046;-75
2021/10/25 16:24:57;;;;;;;22.58;5.35;;;;;;;;;;4937391;29;20078;-77
2021/10/25 16:27:25;;;;;;;19.80;5.15;;;;;;;;;;4936517;29;20149;-78
2021/10/25 16:29:53;;;;;;;15.20;4.50;;;;;;;;;;4937657;29;20127;-76
2021/10/25 16:32:21;;;;;;;18.90;5.18;;;;;;;;;;4937138;29;20040;-77
2021/10/25 16:34:49;;;;;;;19.88;5.07;;;;;;;;;;4936304;29;20040;-77
2021/10/25 16:37:20;;;;;;;21.98;6.82;;;;;;;;;;4937724;29;20046;-77
2021/10/25 16:39:57;;;;;;;38.50;7.07;;;;;;;;;;4919685;29;20123;-75
2021/10/25 16:42:24;;;;;;;28.23;7.25;;;;;;;;;;4935401;29;20050;-75
2021/10/25 16:44:55;;;;;;;21.17;6.10;;;;;;;;;;4935548;29;20050;-76
2021/10/25 16:47:22;;;;;;;17.08;5.22;;;;;;;;;;4935716;29;20050;-75
2021/10/25 16:49:54;;;;;;;14.80;4.60;;;;;;;;;;4935497;29;20044;-79
2021/10/25 17:06:40;;;;;;;17.90;5.85;;;;;;;;;;4952330;28;20154;-77
2021/10/25 17:09:16;;;;;;;18.90;5.50;;;;;;;;;;4911835;29;20056;-77
2021/10/25 17:11:45;;;;;;;20.20;5.53;;;;;;;;;;4899334;29;20059;-77
2021/10/25 17:14:14;;;;;;;21.88;5.45;;;;;;;;;;4899048;29;20056;-74